sensor_id;sensor_type;location;lat;lon;timestamp;P1;durP1;ratioP1;P2;durP2;ratioP2
23358;SDS011;11851;50.796;4.372;2022-09-20T00:00:03;8.38;;;1.83;;
23358;SDS011;11851;50.796;4.372;2022-09-20T00:02:29;8.82;;;2.25;;
23358;SDS011;11851;50.796;4.372;2022-09-20T00:04:55;4.93;;;1.50;;
23358;SDS011;11851;50.796;4.372;2022-09-20T00:07:20;11.35;;;2.00;;
23358;SDS011;11851;50.796;4.372;2022-09-20T00:09:46;4.45;;;1.70;;
23358;SDS011;11851;50.796;4.372;2022-09-20T00:12:12;6.88;;;1.90;;
23358;SDS011;11851;50.796;4.372;2022-09-20T00:14:38;6.50;;;1.70;;
23358;SDS011;11851;50.796;4.372;2022-09-20T00:17:03;6.40;;;1.85;;
23358;SDS011;11851;50.796;4.372;2022-09-20T00:19:29;8.15;;;2.28;;
23358;SDS011;11851;50.796;4.372;2022-09-20T00:21:55;9.52;;;1.80;;
23358;SDS011;11851;50.796;4.372;2022-09-20T00:24:21;5.65;;;1.80;;
23358;SDS011;11851;50.796;4.372;2022-09-20T00:26:46;11.75;;;1.80;;
23358;SDS011;11851;50.796;4.372;2022-09-20T00:29:12;5.70;;;2.10;;
23358;SDS011;11851;50.796;4.372;2022-09-20T00:31:38;6.85;;;2.00;;
23358;SDS011;11851;50.796;4.372;2022-09-20T00:34:07;4.53;;;1.88;;
23358;SDS011;11851;50.796;4.372;2022-09-20T00:36:52;7.90;;;1.90;;
23358;SDS011;11851;50.796;4.372;2022-09-20T00:39:18;5.45;;;2.00;;
23358;SDS011;11851;50.796;4.372;2022-09-20T00:41:44;5.43;;;1.77;;
23358;SDS011;11851;50.796;4.372;2022-09-20T00:49:57;6.47;;;1.92;;
23358;SDS011;11851;50.796;4.372;2022-09-20T00:52:30;6.30;;;2.20;;
23358;SDS011;11851;50.796;4.372;2022-09-20T00:54:56;7.97;;;2.15;;
23358;SDS011;11851;50.796;4.372;2022-09-20T00:57:24;5.90;;;2.10;;
23358;SDS011;11851;50.796;4.372;2022-09-20T00:59:50;7.95;;;2.30;;
23358;SDS011;11851;50.796;4.372;2022-09-20T01:02:25;9.05;;;2.20;;
23358;SDS011;11851;50.796;4.372;2022-09-20T01:04:53;5.85;;;2.08;;
23358;SDS011;11851;50.796;4.372;2022-09-20T01:07:21;6.22;;;2.65;;
23358;SDS011;11851;50.796;4.372;2022-09-20T01:09:48;6.97;;;2.17;;
23358;SDS011;11851;50.796;4.372;2022-09-20T01:12:17;7.13;;;2.33;;
23358;SDS011;11851;50.796;4.372;2022-09-20T01:14:46;5.60;;;1.80;;
23358;SDS011;11851;50.796;4.372;2022-09-20T01:17:14;10.00;;;2.20;;
23358;SDS011;11851;50.796;4.372;2022-09-20T01:22:16;6.50;;;1.88;;
23358;SDS011;11851;50.796;4.372;2022-09-20T01:24:54;5.30;;;1.65;;
23358;SDS011;11851;50.796;4.372;2022-09-20T01:27:37;7.00;;;2.10;;
23358;SDS011;11851;50.796;4.372;2022-09-20T01:30:12;5.75;;;1.92;;
23358;SDS011;11851;50.796;4.372;2022-09-20T01:35:19;6.07;;;1.95;;
23358;SDS011;11851;50.796;4.372;2022-09-20T01:40:42;5.68;;;2.10;;
23358;SDS011;11851;50.796;4.372;2022-09-20T01:45:57;5.38;;;2.33;;
23358;SDS011;11851;50.796;4.372;2022-09-20T01:48:37;6.88;;;2.30;;
23358;SDS011;11851;50.796;4.372;2022-09-20T01:57:14;4.63;;;2.28;;
23358;SDS011;11851;50.796;4.372;2022-09-20T02:00:09;8.38;;;2.50;;
23358;SDS011;11851;50.796;4.372;2022-09-20T02:13:28;8.75;;;2.10;;
23358;SDS011;11851;50.796;4.372;2022-09-20T02:18:54;5.05;;;2.28;;
23358;SDS011;11851;50.796;4.372;2022-09-20T02:22:06;9.77;;;2.58;;
23358;SDS011;11851;50.796;4.372;2022-09-20T02:33:05;11.30;;;2.95;;
23358;SDS011;11851;50.796;4.372;2022-09-20T02:35:55;6.53;;;2.63;;
23358;SDS011;11851;50.796;4.372;2022-09-20T02:46:56;7.10;;;3.10;;
23358;SDS011;11851;50.796;4.372;2022-09-20T02:55:16;6.68;;;2.95;;
23358;SDS011;11851;50.796;4.372;2022-09-20T03:00:41;8.85;;;3.50;;
23358;SDS011;11851;50.796;4.372;2022-09-20T03:08:29;8.82;;;3.55;;
23358;SDS011;11851;50.796;4.372;2022-09-20T03:14:20;9.07;;;3.03;;
23358;SDS011;11851;50.796;4.372;2022-09-20T03:27:31;5.95;;;3.58;;
23358;SDS011;11851;50.796;4.372;2022-09-20T03:30:19;8.50;;;3.42;;
23358;SDS011;11851;50.796;4.372;2022-09-20T03:44:09;12.02;;;4.05;;
23358;SDS011;11851;50.796;4.372;2022-09-20T03:46:42;9.98;;;4.18;;
23358;SDS011;11851;50.796;4.372;2022-09-20T03:52:02;10.50;;;3.90;;
23358;SDS011;11851;50.796;4.372;2022-09-20T03:57:17;9.93;;;3.90;;
23358;SDS011;11851;50.796;4.372;2022-09-20T04:09:18;12.02;;;4.55;;
23358;SDS011;11851;50.796;4.372;2022-09-20T04:14:02;12.45;;;4.30;;
23358;SDS011;11851;50.796;4.372;2022-09-20T04:16:52;10.77;;;3.85;;
23358;SDS011;11851;50.796;4.372;2022-09-20T04:19:30;8.85;;;3.72;;
23358;SDS011;11851;50.796;4.372;2022-09-20T04:22:06;14.25;;;3.90;;
23358;SDS011;11851;50.796;4.372;2022-09-20T04:24:52;8.02;;;4.07;;
23358;SDS011;11851;50.796;4.372;2022-09-20T05:00:06;9.02;;;3.92;;
23358;SDS011;11851;50.796;4.372;2022-09-20T05:16:17;11.48;;;4.45;;
23358;SDS011;11851;50.796;4.372;2022-09-20T05:32:47;15.98;;;4.72;;
23358;SDS011;11851;50.796;4.372;2022-09-20T05:35:28;10.40;;;4.35;;
23358;SDS011;11851;50.796;4.372;2022-09-20T05:43:30;9.35;;;4.22;;
23358;SDS011;11851;50.796;4.372;2022-09-20T05:46:39;15.82;;;4.95;;
23358;SDS011;11851;50.796;4.372;2022-09-20T05:59:56;10.75;;;4.68;;
23358;SDS011;11851;50.796;4.372;2022-09-20T06:16:05;11.32;;;5.47;;
23358;SDS011;11851;50.796;4.372;2022-09-20T06:18:39;17.25;;;5.05;;
23358;SDS011;11851;50.796;4.372;2022-09-20T06:24:28;14.65;;;7.05;;
23358;SDS011;11851;50.796;4.372;2022-09-20T06:27:13;15.25;;;6.38;;
23358;SDS011;11851;50.796;4.372;2022-09-20T06:29:48;17.38;;;6.05;;
23358;SDS011;11851;50.796;4.372;2022-09-20T06:32:17;15.15;;;6.38;;
23358;SDS011;11851;50.796;4.372;2022-09-20T06:34:43;14.80;;;6.10;;
23358;SDS011;11851;50.796;4.372;2022-09-20T06:40:27;14.35;;;6.10;;
23358;SDS011;11851;50.796;4.372;2022-09-20T06:43:12;17.58;;;6.38;;
23358;SDS011;11851;50.796;4.372;2022-09-20T06:45:39;15.48;;;6.28;;
23358;SDS011;11851;50.796;4.372;2022-09-20T06:48:05;13.48;;;5.57;;
23358;SDS011;11851;50.796;4.372;2022-09-20T06:50:33;17.33;;;6.32;;
23358;SDS011;11851;50.796;4.372;2022-09-20T06:53:00;14.63;;;6.45;;
23358;SDS011;11851;50.796;4.372;2022-09-20T06:55:28;20.67;;;6.72;;
23358;SDS011;11851;50.796;4.372;2022-09-20T06:57:59;21.70;;;6.47;;
23358;SDS011;11851;50.796;4.372;2022-09-20T07:00:24;17.10;;;6.05;;
23358;SDS011;11851;50.796;4.372;2022-09-20T07:02:50;17.17;;;6.00;;
23358;SDS011;11851;50.796;4.372;2022-09-20T07:05:16;18.70;;;6.30;;
23358;SDS011;11851;50.796;4.372;2022-09-20T07:07:45;18.52;;;7.10;;
23358;SDS011;11851;50.796;4.372;2022-09-20T07:10:11;15.70;;;5.90;;
23358;SDS011;11851;50.796;4.372;2022-09-20T07:12:39;13.18;;;6.00;;
23358;SDS011;11851;50.796;4.372;2022-09-20T07:15:05;18.38;;;6.55;;
23358;SDS011;11851;50.796;4.372;2022-09-20T07:17:32;15.40;;;6.38;;
23358;SDS011;11851;50.796;4.372;2022-09-20T07:19:58;19.27;;;6.10;;
23358;SDS011;11851;50.796;4.372;2022-09-20T07:22:24;14.40;;;6.43;;
23358;SDS011;11851;50.796;4.372;2022-09-20T07:24:50;20.33;;;6.32;;
23358;SDS011;11851;50.796;4.372;2022-09-20T07:27:16;22.05;;;6.68;;
23358;SDS011;11851;50.796;4.372;2022-09-20T07:29:42;11.13;;;5.72;;
23358;SDS011;11851;50.796;4.372;2022-09-20T07:32:08;14.90;;;6.70;;
23358;SDS011;11851;50.796;4.372;2022-09-20T07:34:34;18.80;;;6.70;;
23358;SDS011;11851;50.796;4.372;2022-09-20T07:36:59;20.50;;;6.68;;
23358;SDS011;11851;50.796;4.372;2022-09-20T07:39:25;15.32;;;6.55;;
23358;SDS011;11851;50.796;4.372;2022-09-20T07:41:51;15.23;;;5.93;;
23358;SDS011;11851;50.796;4.372;2022-09-20T07:44:17;25.95;;;7.50;;
23358;SDS011;11851;50.796;4.372;2022-09-20T07:46:49;14.40;;;6.25;;
23358;SDS011;11851;50.796;4.372;2022-09-20T07:49:16;14.07;;;6.03;;
23358;SDS011;11851;50.796;4.372;2022-09-20T07:51:43;16.67;;;6.53;;
23358;SDS011;11851;50.796;4.372;2022-09-20T07:54:09;18.75;;;6.68;;
23358;SDS011;11851;50.796;4.372;2022-09-20T07:56:34;16.67;;;6.40;;
23358;SDS011;11851;50.796;4.372;2022-09-20T07:59:00;14.20;;;5.95;;
23358;SDS011;11851;50.796;4.372;2022-09-20T08:01:26;15.20;;;6.00;;
23358;SDS011;11851;50.796;4.372;2022-09-20T08:03:52;24.02;;;6.63;;
23358;SDS011;11851;50.796;4.372;2022-09-20T08:06:18;14.55;;;6.47;;
23358;SDS011;11851;50.796;4.372;2022-09-20T08:08:45;13.10;;;6.32;;
23358;SDS011;11851;50.796;4.372;2022-09-20T08:11:12;17.45;;;6.00;;
23358;SDS011;11851;50.796;4.372;2022-09-20T08:13:50;15.73;;;6.30;;
23358;SDS011;11851;50.796;4.372;2022-09-20T08:16:17;17.33;;;6.82;;
23358;SDS011;11851;50.796;4.372;2022-09-20T08:18:51;14.65;;;6.32;;
23358;SDS011;11851;50.796;4.372;2022-09-20T08:21:22;13.32;;;6.13;;
23358;SDS011;11851;50.796;4.372;2022-09-20T08:23:49;19.30;;;6.15;;
23358;SDS011;11851;50.796;4.372;2022-09-20T08:26:15;21.58;;;6.53;;
23358;SDS011;11851;50.796;4.372;2022-09-20T08:28:42;18.05;;;6.05;;
23358;SDS011;11851;50.796;4.372;2022-09-20T08:31:11;20.00;;;5.45;;
23358;SDS011;11851;50.796;4.372;2022-09-20T08:33:43;13.48;;;5.90;;
23358;SDS011;11851;50.796;4.372;2022-09-20T08:36:17;20.70;;;6.47;;
23358;SDS011;11851;50.796;4.372;2022-09-20T08:38:44;10.68;;;5.65;;
23358;SDS011;11851;50.796;4.372;2022-09-20T08:41:12;12.98;;;6.07;;
23358;SDS011;11851;50.796;4.372;2022-09-20T08:43:48;13.32;;;5.30;;
23358;SDS011;11851;50.796;4.372;2022-09-20T08:46:18;11.05;;;5.05;;
23358;SDS011;11851;50.796;4.372;2022-09-20T08:48:51;14.00;;;5.07;;
23358;SDS011;11851;50.796;4.372;2022-09-20T08:51:17;12.52;;;5.18;;
23358;SDS011;11851;50.796;4.372;2022-09-20T08:53:51;18.83;;;5.15;;
23358;SDS011;11851;50.796;4.372;2022-09-20T08:56:18;11.82;;;4.57;;
23358;SDS011;11851;50.796;4.372;2022-09-20T08:58:44;13.70;;;4.70;;
23358;SDS011;11851;50.796;4.372;2022-09-20T09:01:13;13.48;;;4.93;;
23358;SDS011;11851;50.796;4.372;2022-09-20T09:03:52;17.60;;;4.78;;
23358;SDS011;11851;50.796;4.372;2022-09-20T09:06:26;15.13;;;4.97;;
23358;SDS011;11851;50.796;4.372;2022-09-20T09:08:51;12.60;;;4.85;;
23358;SDS011;11851;50.796;4.372;2022-09-20T09:11:22;16.50;;;4.70;;
23358;SDS011;11851;50.796;4.372;2022-09-20T09:13:52;17.60;;;4.80;;
23358;SDS011;11851;50.796;4.372;2022-09-20T09:16:29;13.88;;;4.35;;
23358;SDS011;11851;50.796;4.372;2022-09-20T09:18:56;18.88;;;4.50;;
23358;SDS011;11851;50.796;4.372;2022-09-20T09:21:23;10.63;;;4.10;;
23358;SDS011;11851;50.796;4.372;2022-09-20T09:26:23;11.32;;;4.05;;
23358;SDS011;11851;50.796;4.372;2022-09-20T09:31:41;12.23;;;3.90;;
23358;SDS011;11851;50.796;4.372;2022-09-20T09:36:52;13.18;;;4.47;;
23358;SDS011;11851;50.796;4.372;2022-09-20T09:39:23;8.55;;;3.80;;
23358;SDS011;11851;50.796;4.372;2022-09-20T09:44:25;6.53;;;3.47;;
23358;SDS011;11851;50.796;4.372;2022-09-20T09:46:53;9.93;;;3.40;;
23358;SDS011;11851;50.796;4.372;2022-09-20T09:49:21;13.32;;;2.88;;
23358;SDS011;11851;50.796;4.372;2022-09-20T09:54:45;9.18;;;2.22;;
23358;SDS011;11851;50.796;4.372;2022-09-20T10:02:28;11.05;;;2.78;;
23358;SDS011;11851;50.796;4.372;2022-09-20T10:07:48;8.57;;;2.38;;
23358;SDS011;11851;50.796;4.372;2022-09-20T10:26:45;6.07;;;2.10;;
23358;SDS011;11851;50.796;4.372;2022-09-20T10:40:01;10.75;;;2.20;;
23358;SDS011;11851;50.796;4.372;2022-09-20T10:42:34;9.73;;;1.70;;
23358;SDS011;11851;50.796;4.372;2022-09-20T10:51:16;7.57;;;1.40;;
23358;SDS011;11851;50.796;4.372;2022-09-20T10:56:49;12.85;;;2.67;;
23358;SDS011;11851;50.796;4.372;2022-09-20T10:59:29;7.63;;;1.98;;
23358;SDS011;11851;50.796;4.372;2022-09-20T11:05:23;7.18;;;1.58;;
23358;SDS011;11851;50.796;4.372;2022-09-20T11:10:51;6.80;;;1.10;;
23358;SDS011;11851;50.796;4.372;2022-09-20T11:15:53;8.02;;;2.05;;
23358;SDS011;11851;50.796;4.372;2022-09-20T11:21:07;8.80;;;2.03;;
23358;SDS011;11851;50.796;4.372;2022-09-20T11:23:56;5.65;;;1.20;;
23358;SDS011;11851;50.796;4.372;2022-09-20T11:26:45;9.90;;;1.92;;
23358;SDS011;11851;50.796;4.372;2022-09-20T11:29:22;8.77;;;2.15;;
23358;SDS011;11851;50.796;4.372;2022-09-20T11:32:14;8.45;;;2.15;;
23358;SDS011;11851;50.796;4.372;2022-09-20T11:37:20;11.73;;;2.85;;
23358;SDS011;11851;50.796;4.372;2022-09-20T11:39:52;12.90;;;2.72;;
23358;SDS011;11851;50.796;4.372;2022-09-20T11:42:24;13.10;;;2.67;;
23358;SDS011;11851;50.796;4.372;2022-09-20T11:44:54;10.45;;;2.50;;
23358;SDS011;11851;50.796;4.372;2022-09-20T11:58:14;17.27;;;3.47;;
23358;SDS011;11851;50.796;4.372;2022-09-20T12:00:45;15.52;;;3.35;;
23358;SDS011;11851;50.796;4.372;2022-09-20T12:03:31;12.02;;;3.42;;
23358;SDS011;11851;50.796;4.372;2022-09-20T12:06:06;22.92;;;4.00;;
23358;SDS011;11851;50.796;4.372;2022-09-20T12:08:50;11.18;;;2.60;;
23358;SDS011;11851;50.796;4.372;2022-09-20T12:11:16;13.35;;;2.55;;
23358;SDS011;11851;50.796;4.372;2022-09-20T12:14:06;8.90;;;2.50;;
23358;SDS011;11851;50.796;4.372;2022-09-20T12:16:47;10.75;;;2.00;;
23358;SDS011;11851;50.796;4.372;2022-09-20T12:19:34;37.85;;;11.25;;
23358;SDS011;11851;50.796;4.372;2022-09-20T12:24:30;7.65;;;2.05;;
23358;SDS011;11851;50.796;4.372;2022-09-20T12:26:58;19.15;;;2.53;;
23358;SDS011;11851;50.796;4.372;2022-09-20T12:31:55;7.38;;;2.60;;
23358;SDS011;11851;50.796;4.372;2022-09-20T12:39:32;12.48;;;1.75;;
23358;SDS011;11851;50.796;4.372;2022-09-20T12:42:01;14.73;;;2.17;;
23358;SDS011;11851;50.796;4.372;2022-09-20T12:44:37;12.98;;;2.00;;
23358;SDS011;11851;50.796;4.372;2022-09-20T13:13:55;8.45;;;1.80;;
23358;SDS011;11851;50.796;4.372;2022-09-20T13:19:03;8.10;;;2.33;;
23358;SDS011;11851;50.796;4.372;2022-09-20T13:21:36;8.30;;;2.05;;
23358;SDS011;11851;50.796;4.372;2022-09-20T13:24:04;11.82;;;2.97;;
23358;SDS011;11851;50.796;4.372;2022-09-20T13:26:34;10.40;;;2.08;;
23358;SDS011;11851;50.796;4.372;2022-09-20T13:29:07;10.00;;;2.35;;
23358;SDS011;11851;50.796;4.372;2022-09-20T13:31:46;17.38;;;2.10;;
23358;SDS011;11851;50.796;4.372;2022-09-20T13:34:19;8.68;;;2.03;;
23358;SDS011;11851;50.796;4.372;2022-09-20T13:36:50;3.58;;;1.38;;
23358;SDS011;11851;50.796;4.372;2022-09-20T13:39:21;6.00;;;1.38;;
23358;SDS011;11851;50.796;4.372;2022-09-20T13:41:53;4.13;;;1.20;;
23358;SDS011;11851;50.796;4.372;2022-09-20T13:44:26;7.13;;;1.38;;
23358;SDS011;11851;50.796;4.372;2022-09-20T13:46:53;10.50;;;1.85;;
23358;SDS011;11851;50.796;4.372;2022-09-20T13:49:18;6.35;;;1.70;;
23358;SDS011;11851;50.796;4.372;2022-09-20T13:51:48;7.32;;;1.63;;
23358;SDS011;11851;50.796;4.372;2022-09-20T13:54:18;11.57;;;1.55;;
23358;SDS011;11851;50.796;4.372;2022-09-20T13:56:54;12.13;;;1.67;;
23358;SDS011;11851;50.796;4.372;2022-09-20T13:59:23;7.30;;;2.03;;
23358;SDS011;11851;50.796;4.372;2022-09-20T14:01:57;8.70;;;1.52;;
23358;SDS011;11851;50.796;4.372;2022-09-20T14:04:23;8.13;;;1.20;;
23358;SDS011;11851;50.796;4.372;2022-09-20T14:06:52;7.68;;;1.40;;
23358;SDS011;11851;50.796;4.372;2022-09-20T14:11:59;8.73;;;1.85;;
23358;SDS011;11851;50.796;4.372;2022-09-20T14:14:27;6.82;;;1.50;;
23358;SDS011;11851;50.796;4.372;2022-09-20T14:16:54;4.93;;;1.20;;
23358;SDS011;11851;50.796;4.372;2022-09-20T14:19:23;5.88;;;1.50;;
23358;SDS011;11851;50.796;4.372;2022-09-20T14:21:52;6.37;;;1.30;;
23358;SDS011;11851;50.796;4.372;2022-09-20T14:24:24;7.32;;;1.45;;
23358;SDS011;11851;50.796;4.372;2022-09-20T14:32:20;6.97;;;0.80;;
23358;SDS011;11851;50.796;4.372;2022-09-20T14:35:02;5.72;;;1.10;;
23358;SDS011;11851;50.796;4.372;2022-09-20T14:37:47;5.20;;;1.20;;
23358;SDS011;11851;50.796;4.372;2022-09-20T14:42:47;6.28;;;1.30;;
23358;SDS011;11851;50.796;4.372;2022-09-20T14:45:22;5.20;;;1.30;;
23358;SDS011;11851;50.796;4.372;2022-09-20T14:53:13;6.13;;;1.73;;
23358;SDS011;11851;50.796;4.372;2022-09-20T14:58:22;5.15;;;2.13;;
23358;SDS011;11851;50.796;4.372;2022-09-20T15:00:52;5.80;;;1.90;;
23358;SDS011;11851;50.796;4.372;2022-09-20T15:06:00;6.77;;;1.70;;
23358;SDS011;11851;50.796;4.372;2022-09-20T15:08:27;11.27;;;1.75;;
23358;SDS011;11851;50.796;4.372;2022-09-20T15:10:52;8.02;;;1.70;;
23358;SDS011;11851;50.796;4.372;2022-09-20T15:13:18;9.60;;;1.67;;
23358;SDS011;11851;50.796;4.372;2022-09-20T15:15:46;5.65;;;2.03;;
23358;SDS011;11851;50.796;4.372;2022-09-20T15:18:17;9.07;;;2.30;;
23358;SDS011;11851;50.796;4.372;2022-09-20T15:20:49;4.28;;;1.45;;
23358;SDS011;11851;50.796;4.372;2022-09-20T15:23:15;10.30;;;1.77;;
23358;SDS011;11851;50.796;4.372;2022-09-20T15:25:41;6.72;;;1.60;;
23358;SDS011;11851;50.796;4.372;2022-09-20T15:28:09;4.82;;;1.25;;
23358;SDS011;11851;50.796;4.372;2022-09-20T15:30:41;4.35;;;1.15;;
23358;SDS011;11851;50.796;4.372;2022-09-20T15:33:08;6.32;;;1.20;;
23358;SDS011;11851;50.796;4.372;2022-09-20T15:35:35;9.82;;;1.20;;
23358;SDS011;11851;50.796;4.372;2022-09-20T15:38:02;3.72;;;1.08;;
23358;SDS011;11851;50.796;4.372;2022-09-20T15:40:28;7.43;;;1.67;;
23358;SDS011;11851;50.796;4.372;2022-09-20T15:42:54;4.68;;;1.20;;
23358;SDS011;11851;50.796;4.372;2022-09-20T15:45:20;4.30;;;1.02;;
23358;SDS011;11851;50.796;4.372;2022-09-20T15:47:47;5.50;;;1.27;;
23358;SDS011;11851;50.796;4.372;2022-09-20T15:50:12;5.20;;;1.10;;
23358;SDS011;11851;50.796;4.372;2022-09-20T15:52:38;6.45;;;1.50;;
23358;SDS011;11851;50.796;4.372;2022-09-20T15:55:04;6.03;;;1.20;;
23358;SDS011;11851;50.796;4.372;2022-09-20T15:57:31;9.45;;;1.55;;
23358;SDS011;11851;50.796;4.372;2022-09-20T15:59:58;4.13;;;1.10;;
23358;SDS011;11851;50.796;4.372;2022-09-20T16:02:24;5.80;;;1.27;;
23358;SDS011;11851;50.796;4.372;2022-09-20T16:04:51;4.70;;;1.20;;
23358;SDS011;11851;50.796;4.372;2022-09-20T16:07:20;5.38;;;1.38;;
23358;SDS011;11851;50.796;4.372;2022-09-20T16:09:50;6.90;;;1.00;;
23358;SDS011;11851;50.796;4.372;2022-09-20T16:12:17;6.32;;;1.38;;
23358;SDS011;11851;50.796;4.372;2022-09-20T16:14:43;12.10;;;1.45;;
23358;SDS011;11851;50.796;4.372;2022-09-20T16:17:09;5.10;;;1.23;;
23358;SDS011;11851;50.796;4.372;2022-09-20T16:19:34;6.85;;;1.60;;
23358;SDS011;11851;50.796;4.372;2022-09-20T16:22:02;5.93;;;1.50;;
23358;SDS011;11851;50.796;4.372;2022-09-20T16:24:30;9.50;;;1.80;;
23358;SDS011;11851;50.796;4.372;2022-09-20T16:26:58;7.07;;;1.50;;
23358;SDS011;11851;50.796;4.372;2022-09-20T16:29:25;7.22;;;1.70;;
23358;SDS011;11851;50.796;4.372;2022-09-20T16:31:53;6.50;;;2.05;;
23358;SDS011;11851;50.796;4.372;2022-09-20T16:36:56;6.85;;;1.92;;
23358;SDS011;11851;50.796;4.372;2022-09-20T16:39:27;5.85;;;2.10;;
23358;SDS011;11851;50.796;4.372;2022-09-20T16:41:55;11.50;;;2.38;;
23358;SDS011;11851;50.796;4.372;2022-09-20T16:44:29;7.50;;;1.70;;
23358;SDS011;11851;50.796;4.372;2022-09-20T16:46:59;7.55;;;2.15;;
23358;SDS011;11851;50.796;4.372;2022-09-20T16:49:25;6.78;;;2.08;;
23358;SDS011;11851;50.796;4.372;2022-09-20T16:51:53;7.43;;;2.40;;
23358;SDS011;11851;50.796;4.372;2022-09-20T16:54:19;12.00;;;2.80;;
23358;SDS011;11851;50.796;4.372;2022-09-20T16:56:48;8.15;;;2.75;;
23358;SDS011;11851;50.796;4.372;2022-09-20T16:59:16;13.98;;;2.85;;
23358;SDS011;11851;50.796;4.372;2022-09-20T17:01:43;17.50;;;2.78;;
23358;SDS011;11851;50.796;4.372;2022-09-20T17:04:09;11.50;;;2.15;;
23358;SDS011;11851;50.796;4.372;2022-09-20T17:06:40;4.68;;;2.17;;
23358;SDS011;11851;50.796;4.372;2022-09-20T17:09:07;9.77;;;3.13;;
23358;SDS011;11851;50.796;4.372;2022-09-20T17:11:35;9.52;;;3.00;;
23358;SDS011;11851;50.796;4.372;2022-09-20T17:14:02;13.75;;;4.20;;
23358;SDS011;11851;50.796;4.372;2022-09-20T17:16:29;8.93;;;3.97;;
23358;SDS011;11851;50.796;4.372;2022-09-20T17:18:58;7.22;;;2.75;;
23358;SDS011;11851;50.796;4.372;2022-09-20T17:21:31;10.70;;;2.10;;
23358;SDS011;11851;50.796;4.372;2022-09-20T17:23:59;10.93;;;2.00;;
23358;SDS011;11851;50.796;4.372;2022-09-20T17:26:31;6.97;;;2.15;;
23358;SDS011;11851;50.796;4.372;2022-09-20T17:28:58;6.93;;;1.70;;
23358;SDS011;11851;50.796;4.372;2022-09-20T17:31:26;4.97;;;1.60;;
23358;SDS011;11851;50.796;4.372;2022-09-20T17:33:56;7.05;;;1.63;;
23358;SDS011;11851;50.796;4.372;2022-09-20T17:36:24;6.22;;;1.70;;
23358;SDS011;11851;50.796;4.372;2022-09-20T17:38:55;9.75;;;2.53;;
23358;SDS011;11851;50.796;4.372;2022-09-20T17:41:22;10.13;;;2.17;;
23358;SDS011;11851;50.796;4.372;2022-09-20T17:43:51;9.23;;;2.28;;
23358;SDS011;11851;50.796;4.372;2022-09-20T17:46:22;8.65;;;2.10;;
23358;SDS011;11851;50.796;4.372;2022-09-20T17:48:54;7.72;;;1.83;;
23358;SDS011;11851;50.796;4.372;2022-09-20T17:51:23;12.77;;;2.40;;
23358;SDS011;11851;50.796;4.372;2022-09-20T17:53:51;10.32;;;2.30;;
23358;SDS011;11851;50.796;4.372;2022-09-20T17:56:17;12.38;;;2.58;;
23358;SDS011;11851;50.796;4.372;2022-09-20T17:58:47;5.72;;;1.80;;
23358;SDS011;11851;50.796;4.372;2022-09-20T18:01:14;13.68;;;2.20;;
23358;SDS011;11851;50.796;4.372;2022-09-20T18:03:42;6.55;;;2.13;;
23358;SDS011;11851;50.796;4.372;2022-09-20T18:08:44;8.85;;;2.15;;
23358;SDS011;11851;50.796;4.372;2022-09-20T18:11:14;14.57;;;2.78;;
23358;SDS011;11851;50.796;4.372;2022-09-20T18:13:41;8.82;;;2.72;;
23358;SDS011;11851;50.796;4.372;2022-09-20T18:16:11;9.20;;;2.25;;
23358;SDS011;11851;50.796;4.372;2022-09-20T18:18:38;8.52;;;2.33;;
23358;SDS011;11851;50.796;4.372;2022-09-20T18:21:12;16.38;;;3.70;;
23358;SDS011;11851;50.796;4.372;2022-09-20T18:23:42;11.07;;;3.60;;
23358;SDS011;11851;50.796;4.372;2022-09-20T18:26:10;8.38;;;3.35;;
23358;SDS011;11851;50.796;4.372;2022-09-20T18:28:59;10.32;;;3.90;;
23358;SDS011;11851;50.796;4.372;2022-09-20T18:34:05;11.45;;;3.90;;
23358;SDS011;11851;50.796;4.372;2022-09-20T18:36:35;10.38;;;3.95;;
23358;SDS011;11851;50.796;4.372;2022-09-20T18:39:03;11.02;;;3.50;;
23358;SDS011;11851;50.796;4.372;2022-09-20T18:41:31;8.43;;;3.60;;
23358;SDS011;11851;50.796;4.372;2022-09-20T18:43:58;12.77;;;3.28;;
23358;SDS011;11851;50.796;4.372;2022-09-20T18:46:27;11.60;;;3.58;;
23358;SDS011;11851;50.796;4.372;2022-09-20T18:48:55;12.40;;;3.80;;
23358;SDS011;11851;50.796;4.372;2022-09-20T18:51:22;7.68;;;3.50;;
23358;SDS011;11851;50.796;4.372;2022-09-20T18:53:50;8.23;;;3.20;;
23358;SDS011;11851;50.796;4.372;2022-09-20T18:58:51;10.40;;;3.40;;
23358;SDS011;11851;50.796;4.372;2022-09-20T19:09:33;15.07;;;6.05;;
23358;SDS011;11851;50.796;4.372;2022-09-20T19:12:12;10.38;;;4.10;;
23358;SDS011;11851;50.796;4.372;2022-09-20T19:17:09;13.80;;;4.47;;
23358;SDS011;11851;50.796;4.372;2022-09-20T19:19:48;11.45;;;4.95;;
23358;SDS011;11851;50.796;4.372;2022-09-20T19:22:28;16.13;;;4.70;;
23358;SDS011;11851;50.796;4.372;2022-09-20T19:25:01;15.38;;;4.78;;
23358;SDS011;11851;50.796;4.372;2022-09-20T19:27:36;9.23;;;4.40;;
23358;SDS011;11851;50.796;4.372;2022-09-20T19:30:02;11.88;;;4.57;;
23358;SDS011;11851;50.796;4.372;2022-09-20T19:32:28;13.85;;;4.95;;
23358;SDS011;11851;50.796;4.372;2022-09-20T19:34:54;16.30;;;5.32;;
23358;SDS011;11851;50.796;4.372;2022-09-20T19:40:21;14.68;;;6.20;;
23358;SDS011;11851;50.796;4.372;2022-09-20T19:43:09;17.63;;;6.10;;
23358;SDS011;11851;50.796;4.372;2022-09-20T19:45:46;15.43;;;6.50;;
23358;SDS011;11851;50.796;4.372;2022-09-20T19:48:38;11.43;;;6.10;;
23358;SDS011;11851;50.796;4.372;2022-09-20T19:51:11;13.70;;;6.60;;
23358;SDS011;11851;50.796;4.372;2022-09-20T19:53:38;15.93;;;7.50;;
23358;SDS011;11851;50.796;4.372;2022-09-20T19:58:45;23.25;;;8.43;;
23358;SDS011;11851;50.796;4.372;2022-09-20T20:01:11;21.05;;;8.30;;
23358;SDS011;11851;50.796;4.372;2022-09-20T20:03:37;21.17;;;8.88;;
23358;SDS011;11851;50.796;4.372;2022-09-20T20:06:20;15.73;;;7.57;;
23358;SDS011;11851;50.796;4.372;2022-09-20T20:09:07;16.75;;;8.63;;
23358;SDS011;11851;50.796;4.372;2022-09-20T20:11:48;20.33;;;8.93;;
23358;SDS011;11851;50.796;4.372;2022-09-20T20:17:43;26.83;;;9.02;;
23358;SDS011;11851;50.796;4.372;2022-09-20T20:28:53;18.02;;;8.38;;
23358;SDS011;11851;50.796;4.372;2022-09-20T20:31:19;22.25;;;9.95;;
23358;SDS011;11851;50.796;4.372;2022-09-20T20:33:46;24.55;;;11.13;;
23358;SDS011;11851;50.796;4.372;2022-09-20T20:36:12;20.83;;;9.93;;
23358;SDS011;11851;50.796;4.372;2022-09-20T20:38:38;27.17;;;9.52;;
23358;SDS011;11851;50.796;4.372;2022-09-20T20:43:30;25.50;;;9.25;;
23358;SDS011;11851;50.796;4.372;2022-09-20T20:45:58;20.17;;;8.55;;
23358;SDS011;11851;50.796;4.372;2022-09-20T20:48:24;20.30;;;8.25;;
23358;SDS011;11851;50.796;4.372;2022-09-20T20:53:40;21.23;;;10.45;;
23358;SDS011;11851;50.796;4.372;2022-09-20T20:56:21;22.85;;;10.20;;
23358;SDS011;11851;50.796;4.372;2022-09-20T20:58:53;22.17;;;9.48;;
23358;SDS011;11851;50.796;4.372;2022-09-20T21:01:20;17.15;;;8.65;;
23358;SDS011;11851;50.796;4.372;2022-09-20T21:03:48;21.33;;;9.95;;
23358;SDS011;11851;50.796;4.372;2022-09-20T21:06:15;22.00;;;9.07;;
23358;SDS011;11851;50.796;4.372;2022-09-20T21:08:43;21.88;;;8.70;;
23358;SDS011;11851;50.796;4.372;2022-09-20T21:11:11;19.52;;;7.80;;
23358;SDS011;11851;50.796;4.372;2022-09-20T21:13:51;21.10;;;8.65;;
23358;SDS011;11851;50.796;4.372;2022-09-20T21:16:19;18.08;;;8.73;;
23358;SDS011;11851;50.796;4.372;2022-09-20T21:18:47;23.08;;;9.98;;
23358;SDS011;11851;50.796;4.372;2022-09-20T21:23:44;19.13;;;9.70;;
23358;SDS011;11851;50.796;4.372;2022-09-20T21:26:12;26.00;;;11.07;;
23358;SDS011;11851;50.796;4.372;2022-09-20T21:28:40;22.10;;;10.77;;
23358;SDS011;11851;50.796;4.372;2022-09-20T21:31:08;30.10;;;10.32;;
23358;SDS011;11851;50.796;4.372;2022-09-20T21:33:36;18.75;;;10.73;;
23358;SDS011;11851;50.796;4.372;2022-09-20T21:36:06;20.60;;;10.40;;